sensor_id;sensor_type;location;lat;lon;timestamp;P1;durP1;ratioP1;P2;durP2;ratioP2
82352;SDS011;71954;47.430;18.920;2024-03-08T00:00:34;13.23;;;6.90;;
82352;SDS011;71954;47.430;18.920;2024-03-08T00:03:01;12.45;;;6.30;;
82352;SDS011;71954;47.430;18.920;2024-03-08T00:05:29;13.77;;;7.07;;
82352;SDS011;71954;47.430;18.920;2024-03-08T00:07:56;12.20;;;6.47;;
82352;SDS011;71954;47.430;18.920;2024-03-08T00:10:23;12.73;;;6.82;;
82352;SDS011;71954;47.430;18.920;2024-03-08T00:12:53;13.23;;;7.20;;
82352;SDS011;71954;47.430;18.920;2024-03-08T00:15:20;14.48;;;6.97;;
82352;SDS011;71954;47.430;18.920;2024-03-08T00:17:49;16.20;;;7.47;;
82352;SDS011;71954;47.430;18.920;2024-03-08T00:20:16;15.82;;;7.85;;
82352;SDS011;71954;47.430;18.920;2024-03-08T00:22:46;16.63;;;8.50;;
82352;SDS011;71954;47.430;18.920;2024-03-08T00:25:13;18.00;;;9.27;;
82352;SDS011;71954;47.430;18.920;2024-03-08T00:27:40;20.45;;;10.73;;
82352;SDS011;71954;47.430;18.920;2024-03-08T00:30:07;18.00;;;9.70;;
82352;SDS011;71954;47.430;18.920;2024-03-08T00:32:34;19.27;;;9.77;;
82352;SDS011;71954;47.430;18.920;2024-03-08T00:35:02;18.65;;;10.20;;
82352;SDS011;71954;47.430;18.920;2024-03-08T00:37:29;20.63;;;10.23;;
82352;SDS011;71954;47.430;18.920;2024-03-08T00:39:56;16.92;;;9.13;;
82352;SDS011;71954;47.430;18.920;2024-03-08T00:42:23;17.23;;;9.77;;
82352;SDS011;71954;47.430;18.920;2024-03-08T00:44:50;18.90;;;9.85;;
82352;SDS011;71954;47.430;18.920;2024-03-08T00:47:18;18.25;;;9.70;;
82352;SDS011;71954;47.430;18.920;2024-03-08T00:49:45;18.67;;;9.45;;
82352;SDS011;71954;47.430;18.920;2024-03-08T00:52:13;18.48;;;9.43;;
82352;SDS011;71954;47.430;18.920;2024-03-08T00:54:40;21.00;;;10.75;;
82352;SDS011;71954;47.430;18.920;2024-03-08T00:57:09;20.77;;;9.93;;
82352;SDS011;71954;47.430;18.920;2024-03-08T00:59:37;21.98;;;10.65;;
82352;SDS011;71954;47.430;18.920;2024-03-08T01:02:04;21.25;;;10.60;;
82352;SDS011;71954;47.430;18.920;2024-03-08T01:04:32;19.50;;;10.15;;
82352;SDS011;71954;47.430;18.920;2024-03-08T01:09:26;18.13;;;8.95;;
82352;SDS011;71954;47.430;18.920;2024-03-08T01:11:53;20.98;;;11.30;;
82352;SDS011;71954;47.430;18.920;2024-03-08T01:14:21;18.63;;;10.02;;
82352;SDS011;71954;47.430;18.920;2024-03-08T01:16:49;19.77;;;9.57;;
82352;SDS011;71954;47.430;18.920;2024-03-08T01:19:16;22.48;;;11.13;;
82352;SDS011;71954;47.430;18.920;2024-03-08T01:21:42;23.88;;;11.38;;
82352;SDS011;71954;47.430;18.920;2024-03-08T01:24:09;21.02;;;10.65;;
82352;SDS011;71954;47.430;18.920;2024-03-08T01:26:36;22.58;;;10.70;;
82352;SDS011;71954;47.430;18.920;2024-03-08T01:29:02;18.48;;;10.02;;
82352;SDS011;71954;47.430;18.920;2024-03-08T01:31:29;23.15;;;11.45;;
82352;SDS011;71954;47.430;18.920;2024-03-08T01:33:56;20.70;;;10.52;;
82352;SDS011;71954;47.430;18.920;2024-03-08T01:36:24;20.85;;;10.13;;
82352;SDS011;71954;47.430;18.920;2024-03-08T01:38:51;22.05;;;12.05;;
82352;SDS011;71954;47.430;18.920;2024-03-08T01:41:18;20.40;;;11.40;;
82352;SDS011;71954;47.430;18.920;2024-03-08T01:46:13;22.52;;;10.15;;
82352;SDS011;71954;47.430;18.920;2024-03-08T01:48:43;22.35;;;10.23;;
82352;SDS011;71954;47.430;18.920;2024-03-08T01:51:10;22.17;;;11.10;;
82352;SDS011;71954;47.430;18.920;2024-03-08T01:53:38;21.70;;;11.43;;
82352;SDS011;71954;47.430;18.920;2024-03-08T01:56:06;23.88;;;11.25;;
82352;SDS011;71954;47.430;18.920;2024-03-08T01:58:33;25.75;;;11.50;;
82352;SDS011;71954;47.430;18.920;2024-03-08T02:01:01;23.80;;;12.05;;
82352;SDS011;71954;47.430;18.920;2024-03-08T02:03:30;22.75;;;11.50;;
82352;SDS011;71954;47.430;18.920;2024-03-08T02:05:58;22.58;;;11.10;;
82352;SDS011;71954;47.430;18.920;2024-03-08T02:08:28;26.77;;;11.98;;
82352;SDS011;71954;47.430;18.920;2024-03-08T02:10:55;24.85;;;11.90;;
82352;SDS011;71954;47.430;18.920;2024-03-08T02:13:22;24.58;;;11.98;;
82352;SDS011;71954;47.430;18.920;2024-03-08T02:15:58;24.63;;;11.68;;
82352;SDS011;71954;47.430;18.920;2024-03-08T02:18:27;28.13;;;13.63;;
82352;SDS011;71954;47.430;18.920;2024-03-08T02:20:56;27.02;;;12.90;;
82352;SDS011;71954;47.430;18.920;2024-03-08T02:23:24;26.33;;;12.35;;
82352;SDS011;71954;47.430;18.920;2024-03-08T02:25:52;24.30;;;12.68;;
82352;SDS011;71954;47.430;18.920;2024-03-08T02:28:20;24.48;;;13.27;;
82352;SDS011;71954;47.430;18.920;2024-03-08T02:30:47;27.85;;;13.00;;
82352;SDS011;71954;47.430;18.920;2024-03-08T02:33:15;26.77;;;11.65;;
82352;SDS011;71954;47.430;18.920;2024-03-08T02:35:43;27.65;;;13.10;;
82352;SDS011;71954;47.430;18.920;2024-03-08T02:38:20;30.75;;;15.02;;
82352;SDS011;71954;47.430;18.920;2024-03-08T02:40:49;28.90;;;12.85;;
82352;SDS011;71954;47.430;18.920;2024-03-08T02:43:18;30.27;;;14.52;;
82352;SDS011;71954;47.430;18.920;2024-03-08T02:45:45;28.45;;;13.25;;
82352;SDS011;71954;47.430;18.920;2024-03-08T02:48:12;30.45;;;14.27;;
82352;SDS011;71954;47.430;18.920;2024-03-08T02:50:40;32.10;;;14.85;;
82352;SDS011;71954;47.430;18.920;2024-03-08T02:53:09;30.17;;;13.98;;
82352;SDS011;71954;47.430;18.920;2024-03-08T02:55:37;28.65;;;14.70;;
82352;SDS011;71954;47.430;18.920;2024-03-08T03:00:31;29.17;;;14.55;;
82352;SDS011;71954;47.430;18.920;2024-03-08T03:02:59;29.50;;;14.38;;
82352;SDS011;71954;47.430;18.920;2024-03-08T03:05:26;35.65;;;14.68;;
82352;SDS011;71954;47.430;18.920;2024-03-08T03:07:53;33.53;;;14.93;;
82352;SDS011;71954;47.430;18.920;2024-03-08T03:10:19;37.17;;;14.05;;
82352;SDS011;71954;47.430;18.920;2024-03-08T03:12:48;33.40;;;15.52;;
82352;SDS011;71954;47.430;18.920;2024-03-08T03:15:15;32.03;;;14.30;;
82352;SDS011;71954;47.430;18.920;2024-03-08T03:17:45;30.20;;;14.32;;
82352;SDS011;71954;47.430;18.920;2024-03-08T03:20:19;32.20;;;14.88;;
82352;SDS011;71954;47.430;18.920;2024-03-08T03:23:07;32.22;;;14.88;;
82352;SDS011;71954;47.430;18.920;2024-03-08T03:25:35;36.22;;;15.02;;
82352;SDS011;71954;47.430;18.920;2024-03-08T03:30:29;29.67;;;14.48;;
82352;SDS011;71954;47.430;18.920;2024-03-08T03:33:00;35.67;;;15.43;;
82352;SDS011;71954;47.430;18.920;2024-03-08T03:35:28;33.55;;;14.27;;
82352;SDS011;71954;47.430;18.920;2024-03-08T03:37:58;30.13;;;14.80;;
82352;SDS011;71954;47.430;18.920;2024-03-08T03:40:28;39.55;;;15.35;;
82352;SDS011;71954;47.430;18.920;2024-03-08T03:42:55;34.30;;;16.75;;
82352;SDS011;71954;47.430;18.920;2024-03-08T03:45:25;33.97;;;15.93;;
82352;SDS011;71954;47.430;18.920;2024-03-08T03:47:52;38.45;;;15.48;;
82352;SDS011;71954;47.430;18.920;2024-03-08T03:50:19;37.75;;;16.70;;
82352;SDS011;71954;47.430;18.920;2024-03-08T03:52:46;37.10;;;15.55;;
82352;SDS011;71954;47.430;18.920;2024-03-08T03:55:13;33.90;;;15.38;;
82352;SDS011;71954;47.430;18.920;2024-03-08T03:57:41;38.92;;;16.35;;
82352;SDS011;71954;47.430;18.920;2024-03-08T04:00:08;35.75;;;15.82;;
82352;SDS011;71954;47.430;18.920;2024-03-08T04:02:38;32.20;;;16.25;;
82352;SDS011;71954;47.430;18.920;2024-03-08T04:05:06;32.85;;;15.30;;
82352;SDS011;71954;47.430;18.920;2024-03-08T04:07:33;37.90;;;15.88;;
82352;SDS011;71954;47.430;18.920;2024-03-08T04:10:03;35.63;;;15.82;;
82352;SDS011;71954;47.430;18.920;2024-03-08T04:12:35;37.00;;;16.45;;
82352;SDS011;71954;47.430;18.920;2024-03-08T04:15:02;38.15;;;17.42;;
82352;SDS011;71954;47.430;18.920;2024-03-08T04:17:29;34.45;;;17.00;;
82352;SDS011;71954;47.430;18.920;2024-03-08T04:19:55;39.15;;;16.38;;
82352;SDS011;71954;47.430;18.920;2024-03-08T04:22:23;41.17;;;16.30;;
82352;SDS011;71954;47.430;18.920;2024-03-08T04:24:50;33.35;;;15.85;;
82352;SDS011;71954;47.430;18.920;2024-03-08T04:27:17;33.00;;;15.00;;
82352;SDS011;71954;47.430;18.920;2024-03-08T04:29:43;32.72;;;16.02;;
82352;SDS011;71954;47.430;18.920;2024-03-08T04:32:10;35.75;;;17.30;;
82352;SDS011;71954;47.430;18.920;2024-03-08T04:34:37;36.28;;;15.90;;
82352;SDS011;71954;47.430;18.920;2024-03-08T04:37:03;36.35;;;16.25;;
82352;SDS011;71954;47.430;18.920;2024-03-08T04:39:31;33.75;;;15.25;;
82352;SDS011;71954;47.430;18.920;2024-03-08T04:41:59;33.72;;;15.68;;
82352;SDS011;71954;47.430;18.920;2024-03-08T04:44:33;38.70;;;16.77;;
82352;SDS011;71954;47.430;18.920;2024-03-08T04:47:00;36.38;;;17.23;;
82352;SDS011;71954;47.430;18.920;2024-03-08T04:49:27;37.70;;;16.30;;
82352;SDS011;71954;47.430;18.920;2024-03-08T04:51:54;35.70;;;15.57;;
82352;SDS011;71954;47.430;18.920;2024-03-08T04:54:21;38.58;;;16.73;;
82352;SDS011;71954;47.430;18.920;2024-03-08T04:56:48;35.25;;;17.48;;
82352;SDS011;71954;47.430;18.920;2024-03-08T04:59:14;32.75;;;15.45;;
82352;SDS011;71954;47.430;18.920;2024-03-08T05:01:41;33.20;;;15.85;;
82352;SDS011;71954;47.430;18.920;2024-03-08T05:04:08;36.88;;;15.40;;
82352;SDS011;71954;47.430;18.920;2024-03-08T05:06:35;37.42;;;16.85;;
82352;SDS011;71954;47.430;18.920;2024-03-08T05:09:03;38.53;;;16.58;;
82352;SDS011;71954;47.430;18.920;2024-03-08T05:11:40;37.25;;;17.02;;
82352;SDS011;71954;47.430;18.920;2024-03-08T05:14:08;32.50;;;14.98;;
82352;SDS011;71954;47.430;18.920;2024-03-08T05:16:34;33.30;;;14.48;;
82352;SDS011;71954;47.430;18.920;2024-03-08T05:19:02;36.35;;;16.55;;
82352;SDS011;71954;47.430;18.920;2024-03-08T05:21:29;37.75;;;15.32;;
82352;SDS011;71954;47.430;18.920;2024-03-08T05:23:55;32.88;;;15.95;;
82352;SDS011;71954;47.430;18.920;2024-03-08T05:26:22;37.47;;;16.13;;
82352;SDS011;71954;47.430;18.920;2024-03-08T05:28:48;35.58;;;16.23;;
82352;SDS011;71954;47.430;18.920;2024-03-08T05:31:21;37.40;;;16.65;;
82352;SDS011;71954;47.430;18.920;2024-03-08T05:33:49;33.67;;;14.70;;
82352;SDS011;71954;47.430;18.920;2024-03-08T05:36:16;39.28;;;17.17;;
82352;SDS011;71954;47.430;18.920;2024-03-08T05:38:43;37.92;;;16.23;;
82352;SDS011;71954;47.430;18.920;2024-03-08T05:41:10;35.22;;;17.02;;
82352;SDS011;71954;47.430;18.920;2024-03-08T05:43:38;37.70;;;15.88;;
82352;SDS011;71954;47.430;18.920;2024-03-08T05:46:07;36.08;;;16.83;;
82352;SDS011;71954;47.430;18.920;2024-03-08T05:48:33;30.70;;;15.25;;
82352;SDS011;71954;47.430;18.920;2024-03-08T05:51:00;36.75;;;16.33;;
82352;SDS011;71954;47.430;18.920;2024-03-08T05:53:28;33.72;;;14.98;;
82352;SDS011;71954;47.430;18.920;2024-03-08T05:55:58;36.60;;;15.98;;
82352;SDS011;71954;47.430;18.920;2024-03-08T05:58:25;30.83;;;15.02;;
82352;SDS011;71954;47.430;18.920;2024-03-08T06:00:52;40.63;;;15.55;;
82352;SDS011;71954;47.430;18.920;2024-03-08T06:03:19;34.85;;;14.48;;
82352;SDS011;71954;47.430;18.920;2024-03-08T06:05:48;34.45;;;15.60;;
82352;SDS011;71954;47.430;18.920;2024-03-08T06:08:16;35.13;;;16.52;;
82352;SDS011;71954;47.430;18.920;2024-03-08T06:10:43;35.45;;;15.70;;
82352;SDS011;71954;47.430;18.920;2024-03-08T06:13:09;34.45;;;16.60;;
82352;SDS011;71954;47.430;18.920;2024-03-08T06:15:38;41.83;;;16.60;;
82352;SDS011;71954;47.430;18.920;2024-03-08T06:18:05;32.95;;;15.13;;
82352;SDS011;71954;47.430;18.920;2024-03-08T06:20:32;40.58;;;17.00;;
82352;SDS011;71954;47.430;18.920;2024-03-08T06:22:59;37.08;;;16.73;;
82352;SDS011;71954;47.430;18.920;2024-03-08T06:25:27;37.38;;;15.35;;
82352;SDS011;71954;47.430;18.920;2024-03-08T06:27:54;32.45;;;15.35;;
82352;SDS011;71954;47.430;18.920;2024-03-08T06:30:21;36.15;;;15.93;;
82352;SDS011;71954;47.430;18.920;2024-03-08T06:32:48;39.67;;;16.77;;
82352;SDS011;71954;47.430;18.920;2024-03-08T06:35:15;34.65;;;16.02;;
82352;SDS011;71954;47.430;18.920;2024-03-08T06:37:42;35.88;;;17.00;;
82352;SDS011;71954;47.430;18.920;2024-03-08T06:40:11;38.53;;;16.70;;
82352;SDS011;71954;47.430;18.920;2024-03-08T06:42:40;36.50;;;16.67;;
82352;SDS011;71954;47.430;18.920;2024-03-08T06:45:08;34.97;;;14.73;;
82352;SDS011;71954;47.430;18.920;2024-03-08T06:47:36;42.28;;;18.02;;
82352;SDS011;71954;47.430;18.920;2024-03-08T06:50:03;33.35;;;15.25;;
82352;SDS011;71954;47.430;18.920;2024-03-08T06:52:30;38.25;;;15.80;;
82352;SDS011;71954;47.430;18.920;2024-03-08T06:54:57;34.83;;;15.65;;
82352;SDS011;71954;47.430;18.920;2024-03-08T06:57:24;41.17;;;17.13;;
82352;SDS011;71954;47.430;18.920;2024-03-08T06:59:51;35.47;;;15.60;;
82352;SDS011;71954;47.430;18.920;2024-03-08T07:02:18;37.83;;;16.90;;
82352;SDS011;71954;47.430;18.920;2024-03-08T07:04:45;38.67;;;15.80;;
82352;SDS011;71954;47.430;18.920;2024-03-08T07:07:12;37.03;;;16.38;;
82352;SDS011;71954;47.430;18.920;2024-03-08T07:09:38;39.55;;;16.17;;
82352;SDS011;71954;47.430;18.920;2024-03-08T07:12:05;39.78;;;16.02;;
82352;SDS011;71954;47.430;18.920;2024-03-08T07:14:32;36.50;;;16.45;;
82352;SDS011;71954;47.430;18.920;2024-03-08T07:16:59;37.65;;;15.90;;
82352;SDS011;71954;47.430;18.920;2024-03-08T07:19:29;40.40;;;18.42;;
82352;SDS011;71954;47.430;18.920;2024-03-08T07:21:55;38.72;;;16.30;;
82352;SDS011;71954;47.430;18.920;2024-03-08T07:24:22;30.30;;;14.90;;
82352;SDS011;71954;47.430;18.920;2024-03-08T07:27:06;40.50;;;17.35;;
82352;SDS011;71954;47.430;18.920;2024-03-08T07:29:33;36.42;;;16.20;;
82352;SDS011;71954;47.430;18.920;2024-03-08T07:32:02;38.67;;;17.58;;
82352;SDS011;71954;47.430;18.920;2024-03-08T07:34:29;36.90;;;17.60;;
82352;SDS011;71954;47.430;18.920;2024-03-08T07:36:59;40.97;;;17.48;;
82352;SDS011;71954;47.430;18.920;2024-03-08T07:39:26;38.83;;;17.25;;
82352;SDS011;71954;47.430;18.920;2024-03-08T07:41:53;36.88;;;16.25;;
82352;SDS011;71954;47.430;18.920;2024-03-08T07:44:19;34.42;;;16.13;;
82352;SDS011;71954;47.430;18.920;2024-03-08T07:46:46;44.67;;;19.17;;
82352;SDS011;71954;47.430;18.920;2024-03-08T07:49:12;37.15;;;17.33;;
82352;SDS011;71954;47.430;18.920;2024-03-08T07:54:07;40.38;;;17.75;;
82352;SDS011;71954;47.430;18.920;2024-03-08T07:56:35;39.17;;;17.38;;
82352;SDS011;71954;47.430;18.920;2024-03-08T07:59:04;41.47;;;18.77;;
82352;SDS011;71954;47.430;18.920;2024-03-08T08:01:31;40.83;;;17.40;;
82352;SDS011;71954;47.430;18.920;2024-03-08T08:03:58;37.95;;;17.30;;
82352;SDS011;71954;47.430;18.920;2024-03-08T08:06:25;42.47;;;17.25;;
82352;SDS011;71954;47.430;18.920;2024-03-08T08:08:52;39.28;;;16.98;;
82352;SDS011;71954;47.430;18.920;2024-03-08T08:11:18;39.65;;;16.08;;
82352;SDS011;71954;47.430;18.920;2024-03-08T08:13:46;40.45;;;18.45;;
82352;SDS011;71954;47.430;18.920;2024-03-08T08:16:13;40.08;;;17.92;;
82352;SDS011;71954;47.430;18.920;2024-03-08T08:18:40;42.40;;;17.42;;
82352;SDS011;71954;47.430;18.920;2024-03-08T08:21:07;41.80;;;18.40;;
82352;SDS011;71954;47.430;18.920;2024-03-08T08:23:33;43.05;;;20.08;;
82352;SDS011;71954;47.430;18.920;2024-03-08T08:26:00;42.42;;;17.67;;
82352;SDS011;71954;47.430;18.920;2024-03-08T08:28:29;40.38;;;17.92;;
82352;SDS011;71954;47.430;18.920;2024-03-08T08:30:57;37.33;;;18.17;;
82352;SDS011;71954;47.430;18.920;2024-03-08T08:33:23;41.50;;;18.25;;
82352;SDS011;71954;47.430;18.920;2024-03-08T08:35:51;39.25;;;17.83;;
82352;SDS011;71954;47.430;18.920;2024-03-08T08:38:20;42.78;;;18.83;;
82352;SDS011;71954;47.430;18.920;2024-03-08T08:40:47;44.33;;;18.48;;
82352;SDS011;71954;47.430;18.920;2024-03-08T08:43:13;43.33;;;18.58;;
82352;SDS011;71954;47.430;18.920;2024-03-08T08:45:40;43.33;;;19.10;;
82352;SDS011;71954;47.430;18.920;2024-03-08T08:48:07;39.20;;;17.08;;
82352;SDS011;71954;47.430;18.920;2024-03-08T08:50:33;44.13;;;19.60;;
82352;SDS011;71954;47.430;18.920;2024-03-08T08:53:00;39.72;;;18.20;;
82352;SDS011;71954;47.430;18.920;2024-03-08T08:55:27;38.55;;;16.90;;
82352;SDS011;71954;47.430;18.920;2024-03-08T08:57:55;49.40;;;18.83;;
82352;SDS011;71954;47.430;18.920;2024-03-08T09:00:22;44.20;;;18.63;;
82352;SDS011;71954;47.430;18.920;2024-03-08T09:02:54;42.47;;;19.45;;
82352;SDS011;71954;47.430;18.920;2024-03-08T09:05:24;45.85;;;17.83;;
82352;SDS011;71954;47.430;18.920;2024-03-08T09:07:52;42.45;;;16.73;;
82352;SDS011;71954;47.430;18.920;2024-03-08T09:10:19;41.20;;;16.85;;
82352;SDS011;71954;47.430;18.920;2024-03-08T09:12:46;42.38;;;18.08;;
82352;SDS011;71954;47.430;18.920;2024-03-08T09:15:13;41.17;;;17.63;;
82352;SDS011;71954;47.430;18.920;2024-03-08T09:17:40;43.45;;;16.92;;
82352;SDS011;71954;47.430;18.920;2024-03-08T09:20:08;43.55;;;17.42;;
82352;SDS011;71954;47.430;18.920;2024-03-08T09:22:44;47.85;;;18.17;;
82352;SDS011;71954;47.430;18.920;2024-03-08T09:25:12;37.47;;;16.50;;
82352;SDS011;71954;47.430;18.920;2024-03-08T09:27:39;43.00;;;18.17;;
82352;SDS011;71954;47.430;18.920;2024-03-08T09:30:06;42.90;;;19.00;;
82352;SDS011;71954;47.430;18.920;2024-03-08T09:32:34;40.83;;;18.02;;
82352;SDS011;71954;47.430;18.920;2024-03-08T09:35:01;38.60;;;18.15;;
82352;SDS011;71954;47.430;18.920;2024-03-08T09:37:29;39.35;;;17.00;;
82352;SDS011;71954;47.430;18.920;2024-03-08T09:39:55;43.72;;;17.85;;
82352;SDS011;71954;47.430;18.920;2024-03-08T09:42:22;45.50;;;18.45;;
82352;SDS011;71954;47.430;18.920;2024-03-08T09:44:49;43.38;;;20.08;;
82352;SDS011;71954;47.430;18.920;2024-03-08T09:47:16;45.33;;;20.48;;
82352;SDS011;71954;47.430;18.920;2024-03-08T09:49:44;42.55;;;19.25;;
82352;SDS011;71954;47.430;18.920;2024-03-08T09:52:10;44.42;;;19.13;;
82352;SDS011;71954;47.430;18.920;2024-03-08T09:54:38;41.13;;;17.75;;
82352;SDS011;71954;47.430;18.920;2024-03-08T09:57:06;40.92;;;17.40;;
82352;SDS011;71954;47.430;18.920;2024-03-08T09:59:35;43.63;;;18.02;;
82352;SDS011;71954;47.430;18.920;2024-03-08T10:02:02;40.45;;;17.70;;
82352;SDS011;71954;47.430;18.920;2024-03-08T10:04:29;44.53;;;18.98;;
82352;SDS011;71954;47.430;18.920;2024-03-08T10:06:57;43.35;;;18.75;;
82352;SDS011;71954;47.430;18.920;2024-03-08T10:09:25;42.78;;;17.77;;
82352;SDS011;71954;47.430;18.920;2024-03-08T10:11:55;43.03;;;18.42;;
82352;SDS011;71954;47.430;18.920;2024-03-08T10:14:24;43.22;;;20.25;;
82352;SDS011;71954;47.430;18.920;2024-03-08T10:16:54;44.13;;;17.83;;
82352;SDS011;71954;47.430;18.920;2024-03-08T10:19:20;44.72;;;19.20;;
82352;SDS011;71954;47.430;18.920;2024-03-08T10:21:51;43.38;;;17.75;;
82352;SDS011;71954;47.430;18.920;2024-03-08T10:24:20;42.33;;;18.95;;
82352;SDS011;71954;47.430;18.920;2024-03-08T10:26:46;54.20;;;20.65;;
82352;SDS011;71954;47.430;18.920;2024-03-08T10:31:45;45.00;;;18.33;;
82352;SDS011;71954;47.430;18.920;2024-03-08T10:34:12;39.15;;;18.73;;
82352;SDS011;71954;47.430;18.920;2024-03-08T10:36:39;48.80;;;19.45;;
82352;SDS011;71954;47.430;18.920;2024-03-08T10:39:25;41.05;;;18.73;;
82352;SDS011;71954;47.430;18.920;2024-03-08T10:47:02;45.60;;;19.10;;
82352;SDS011;71954;47.430;18.920;2024-03-08T10:50:23;46.53;;;18.77;;
82352;SDS011;71954;47.430;18.920;2024-03-08T10:52:43;39.88;;;17.30;;
82352;SDS011;71954;47.430;18.920;2024-03-08T10:55:10;41.65;;;18.17;;
82352;SDS011;71954;47.430;18.920;2024-03-08T10:57:40;41.58;;;18.90;;
82352;SDS011;71954;47.430;18.920;2024-03-08T11:00:07;43.45;;;18.02;;
82352;SDS011;71954;47.430;18.920;2024-03-08T11:02:38;38.85;;;17.00;;
82352;SDS011;71954;47.430;18.920;2024-03-08T11:05:05;38.58;;;17.48;;
82352;SDS011;71954;47.430;18.920;2024-03-08T11:07:42;40.60;;;18.90;;
82352;SDS011;71954;47.430;18.920;2024-03-08T11:10:18;44.25;;;18.13;;
82352;SDS011;71954;47.430;18.920;2024-03-08T11:12:46;38.90;;;18.30;;
82352;SDS011;71954;47.430;18.920;2024-03-08T11:15:14;45.80;;;20.23;;
82352;SDS011;71954;47.430;18.920;2024-03-08T11:17:46;35.85;;;17.55;;
82352;SDS011;71954;47.430;18.920;2024-03-08T11:20:15;35.55;;;16.35;;
82352;SDS011;71954;47.430;18.920;2024-03-08T11:22:50;32.22;;;15.77;;
82352;SDS011;71954;47.430;18.920;2024-03-08T11:25:32;36.88;;;17.23;;
82352;SDS011;71954;47.430;18.920;2024-03-08T11:28:06;38.63;;;16.65;;
82352;SDS011;71954;47.430;18.920;2024-03-08T11:30:34;35.88;;;17.25;;
82352;SDS011;71954;47.430;18.920;2024-03-08T11:33:01;35.83;;;16.20;;
82352;SDS011;71954;47.430;18.920;2024-03-08T11:35:29;40.45;;;18.30;;
82352;SDS011;71954;47.430;18.920;2024-03-08T11:37:59;33.28;;;16.50;;
82352;SDS011;71954;47.430;18.920;2024-03-08T11:40:29;33.35;;;14.90;;
82352;SDS011;71954;47.430;18.920;2024-03-08T11:42:56;35.70;;;15.60;;
82352;SDS011;71954;47.430;18.920;2024-03-08T11:45:22;33.78;;;15.60;;
82352;SDS011;71954;47.430;18.920;2024-03-08T11:47:49;35.97;;;15.80;;
82352;SDS011;71954;47.430;18.920;2024-03-08T11:50:17;37.47;;;16.27;;
82352;SDS011;71954;47.430;18.920;2024-03-08T11:52:47;34.72;;;17.38;;
82352;SDS011;71954;47.430;18.920;2024-03-08T11:55:15;30.83;;;14.95;;
82352;SDS011;71954;47.430;18.920;2024-03-08T11:57:47;32.92;;;16.50;;
82352;SDS011;71954;47.430;18.920;2024-03-08T12:00:15;35.47;;;16.00;;
82352;SDS011;71954;47.430;18.920;2024-03-08T12:03:04;34.95;;;15.55;;
82352;SDS011;71954;47.430;18.920;2024-03-08T12:05:32;30.00;;;14.35;;
82352;SDS011;71954;47.430;18.920;2024-03-08T12:08:02;28.60;;;14.32;;
82352;SDS011;71954;47.430;18.920;2024-03-08T12:10:29;34.35;;;17.23;;
82352;SDS011;71954;47.430;18.920;2024-03-08T12:12:57;33.90;;;16.63;;
82352;SDS011;71954;47.430;18.920;2024-03-08T12:15:27;32.17;;;15.27;;
82352;SDS011;71954;47.430;18.920;2024-03-08T12:17:55;30.17;;;14.77;;
82352;SDS011;71954;47.430;18.920;2024-03-08T12:22:55;30.10;;;14.23;;
82352;SDS011;71954;47.430;18.920;2024-03-08T12:25:41;27.00;;;13.60;;
82352;SDS011;71954;47.430;18.920;2024-03-08T12:28:11;23.88;;;13.10;;
82352;SDS011;71954;47.430;18.920;2024-03-08T12:30:50;23.02;;;11.75;;
82352;SDS011;71954;47.430;18.920;2024-03-08T12:33:19;24.75;;;11.38;;
82352;SDS011;71954;47.430;18.920;2024-03-08T12:35:52;21.63;;;11.68;;
82352;SDS011;71954;47.430;18.920;2024-03-08T12:38:21;22.77;;;12.35;;
82352;SDS011;71954;47.430;18.920;2024-03-08T12:40:59;26.05;;;12.40;;
82352;SDS011;71954;47.430;18.920;2024-03-08T12:43:26;20.70;;;11.55;;
82352;SDS011;71954;47.430;18.920;2024-03-08T12:45:57;22.90;;;11.63;;
82352;SDS011;71954;47.430;18.920;2024-03-08T12:48:23;23.45;;;12.52;;
82352;SDS011;71954;47.430;18.920;2024-03-08T12:53:18;20.27;;;11.38;;
82352;SDS011;71954;47.430;18.920;2024-03-08T12:55:45;21.25;;;11.23;;
82352;SDS011;71954;47.430;18.920;2024-03-08T12:58:11;21.05;;;11.10;;
82352;SDS011;71954;47.430;18.920;2024-03-08T13:00:38;20.23;;;10.88;;
82352;SDS011;71954;47.430;18.920;2024-03-08T13:03:09;19.70;;;11.32;;
82352;SDS011;71954;47.430;18.920;2024-03-08T13:05:37;25.95;;;12.25;;
82352;SDS011;71954;47.430;18.920;2024-03-08T13:08:06;21.77;;;12.48;;
82352;SDS011;71954;47.430;18.920;2024-03-08T13:10:39;24.77;;;12.20;;
82352;SDS011;71954;47.430;18.920;2024-03-08T13:13:06;20.55;;;11.48;;
82352;SDS011;71954;47.430;18.920;2024-03-08T13:15:33;22.67;;;11.23;;
82352;SDS011;71954;47.430;18.920;2024-03-08T13:18:00;18.63;;;10.25;;
82352;SDS011;71954;47.430;18.920;2024-03-08T13:20:26;18.20;;;10.60;;
82352;SDS011;71954;47.430;18.920;2024-03-08T13:23:05;17.77;;;10.50;;
82352;SDS011;71954;47.430;18.920;2024-03-08T13:25:34;18.63;;;10.75;;
82352;SDS011;71954;47.430;18.920;2024-03-08T13:28:05;19.38;;;11.68;;
82352;SDS011;71954;47.430;18.920;2024-03-08T13:30:33;21.35;;;11.82;;
82352;SDS011;71954;47.430;18.920;2024-03-08T13:32:59;17.30;;;10.85;;
82352;SDS011;71954;47.430;18.920;2024-03-08T13:35:26;16.92;;;10.13;;
82352;SDS011;71954;47.430;18.920;2024-03-08T13:37:54;17.73;;;10.20;;
82352;SDS011;71954;47.430;18.920;2024-03-08T13:40:21;16.80;;;9.88;;
82352;SDS011;71954;47.430;18.920;2024-03-08T13:42:48;15.70;;;9.57;;
82352;SDS011;71954;47.430;18.920;2024-03-08T13:45:15;14.02;;;9.20;;
82352;SDS011;71954;47.430;18.920;2024-03-08T13:47:53;14.55;;;8.95;;
82352;SDS011;71954;47.430;18.920;2024-03-08T13:50:21;15.95;;;9.48;;
82352;SDS011;71954;47.430;18.920;2024-03-08T13:52:49;13.57;;;8.55;;
82352;SDS011;71954;47.430;18.920;2024-03-08T13:55:22;15.45;;;8.88;;
82352;SDS011;71954;47.430;18.920;2024-03-08T13:57:50;13.60;;;9.25;;
82352;SDS011;71954;47.430;18.920;2024-03-08T14:00:18;15.13;;;10.35;;
82352;SDS011;71954;47.430;18.920;2024-03-08T14:02:49;14.10;;;9.00;;
82352;SDS011;71954;47.430;18.920;2024-03-08T14:05:15;15.75;;;9.27;;
82352;SDS011;71954;47.430;18.920;2024-03-08T14:07:42;15.43;;;9.27;;
82352;SDS011;71954;47.430;18.920;2024-03-08T14:10:12;15.27;;;8.73;;
82352;SDS011;71954;47.430;18.920;2024-03-08T14:12:39;17.20;;;9.23;;
82352;SDS011;71954;47.430;18.920;2024-03-08T14:15:06;15.13;;;8.98;;
82352;SDS011;71954;47.430;18.920;2024-03-08T14:17:33;15.75;;;8.45;;
82352;SDS011;71954;47.430;18.920;2024-03-08T14:20:00;14.57;;;9.23;;
82352;SDS011;71954;47.430;18.920;2024-03-08T14:22:26;14.88;;;9.05;;
82352;SDS011;71954;47.430;18.920;2024-03-08T14:24:53;15.38;;;8.60;;
82352;SDS011;71954;47.430;18.920;2024-03-08T14:27:22;14.88;;;8.55;;
82352;SDS011;71954;47.430;18.920;2024-03-08T14:29:49;16.40;;;9.50;;
82352;SDS011;71954;47.430;18.920;2024-03-08T14:32:15;17.75;;;9.63;;
82352;SDS011;71954;47.430;18.920;2024-03-08T14:34:46;15.10;;;8.32;;
82352;SDS011;71954;47.430;18.920;2024-03-08T14:37:14;15.50;;;8.95;;
82352;SDS011;71954;47.430;18.920;2024-03-08T14:39:41;13.63;;;7.85;;
82352;SDS011;71954;47.430;18.920;2024-03-08T14:42:07;17.65;;;8.90;;